Time;durP1;ratioP1;P1;durP2;ratioP2;P2;SDS_P1;SDS_P2;PMS_P1;PMS_P2;Temp;Humidity;BMP_temperature;BMP_pressure;BME280_temperature;BME280_humidity;BME280_pressure;Samples;Min_cycle;Max_cycle;Signal;HPM_P1;HPM_P2
2024/03/09 00:00:04;;;;;;;3.73;2.30;;;;;;;;;;5115241;28;20235;-83
2024/03/09 00:02:31;;;;;;;3.00;2.23;;;;;;;;;;5114375;28;20298;-83
2024/03/09 00:05:00;;;;;;;2.63;2.30;;;;;;;;;;5114826;28;20626;-83
2024/03/09 00:07:28;;;;;;;3.07;2.77;;;;;;;;;;5114921;28;20186;-83
2024/03/09 00:09:55;;;;;;;4.70;2.73;;;;;;;;;;5115260;27;20606;-84
2024/03/09 00:12:22;;;;;;;3.40;2.40;;;;;;;;;;5119220;27;20255;-83
2024/03/09 00:14:49;;;;;;;2.77;2.33;;;;;;;;;;5116460;27;20197;-83
2024/03/09 00:17:16;;;;;;;4.27;2.97;;;;;;;;;;5114531;28;20699;-82
2024/03/09 00:19:44;;;;;;;3.83;2.50;;;;;;;;;;5114687;28;20225;-83
2024/03/09 00:22:14;;;;;;;3.27;2.60;;;;;;;;;;5114952;28;20667;-83
2024/03/09 00:24:41;;;;;;;2.90;2.60;;;;;;;;;;5114628;28;20229;-81
2024/03/09 00:27:11;;;;;;;3.13;2.73;;;;;;;;;;5114650;28;20194;-84
2024/03/09 00:29:39;;;;;;;3.70;2.60;;;;;;;;;;5114502;27;20672;-83
2024/03/09 00:32:06;;;;;;;3.47;2.47;;;;;;;;;;5113823;28;20217;-83
2024/03/09 00:34:33;;;;;;;3.37;2.70;;;;;;;;;;5114486;28;20217;-83
2024/03/09 00:37:02;;;;;;;3.60;2.43;;;;;;;;;;5114351;28;20284;-83
2024/03/09 00:39:31;;;;;;;3.20;2.60;;;;;;;;;;5101921;28;20224;-82
2024/03/09 00:41:59;;;;;;;2.90;2.60;;;;;;;;;;5114338;28;20194;-83
2024/03/09 00:44:26;;;;;;;3.33;2.83;;;;;;;;;;5114411;28;20193;-82
2024/03/09 00:46:53;;;;;;;3.40;2.87;;;;;;;;;;5114020;28;20194;-83
2024/03/09 00:49:20;;;;;;;3.30;2.40;;;;;;;;;;5112743;28;20243;-83
2024/03/09 00:51:48;;;;;;;3.40;2.83;;;;;;;;;;5114178;28;20265;-83
2024/03/09 00:54:15;;;;;;;3.73;2.80;;;;;;;;;;5114363;28;20193;-82
2024/03/09 00:56:44;;;;;;;3.93;3.07;;;;;;;;;;5113323;28;20228;-83
2024/03/09 00:59:13;;;;;;;3.20;2.90;;;;;;;;;;5114297;28;20197;-84
2024/03/09 01:01:41;;;;;;;4.53;3.30;;;;;;;;;;5113326;28;20289;-84
2024/03/09 01:04:09;;;;;;;3.20;2.70;;;;;;;;;;5113137;28;20205;-84
2024/03/09 01:06:37;;;;;;;3.27;2.90;;;;;;;;;;5113851;28;20193;-82
2024/03/09 01:09:05;;;;;;;3.53;2.80;;;;;;;;;;5114104;28;20212;-83
2024/03/09 01:11:32;;;;;;;3.70;3.20;;;;;;;;;;5114174;28;20214;-83
2024/03/09 01:14:01;;;;;;;3.70;3.23;;;;;;;;;;5113578;28;20197;-84
2024/03/09 01:16:29;;;;;;;3.30;3.00;;;;;;;;;;5113621;28;20637;-83
2024/03/09 01:18:57;;;;;;;4.03;3.00;;;;;;;;;;5113930;28;20287;-83
2024/03/09 01:21:24;;;;;;;4.27;3.40;;;;;;;;;;5113578;28;20237;-84
2024/03/09 01:23:51;;;;;;;3.40;3.10;;;;;;;;;;5113744;28;20250;-82
2024/03/09 01:26:18;;;;;;;3.40;3.10;;;;;;;;;;5113856;28;20225;-83
2024/03/09 01:28:46;;;;;;;3.77;3.07;;;;;;;;;;5113703;28;20577;-83
2024/03/09 01:31:16;;;;;;;3.67;3.13;;;;;;;;;;5113297;28;20221;-83
2024/03/09 01:33:44;;;;;;;3.60;2.73;;;;;;;;;;5113806;28;20195;-84
2024/03/09 01:36:12;;;;;;;4.20;3.10;;;;;;;;;;5113597;28;20197;-82
2024/03/09 01:38:40;;;;;;;3.17;2.77;;;;;;;;;;5113795;28;20232;-83
2024/03/09 01:41:07;;;;;;;3.10;2.80;;;;;;;;;;5113265;28;20567;-84
2024/03/09 01:43:35;;;;;;;4.30;2.97;;;;;;;;;;5113530;28;20234;-83
2024/03/09 01:46:05;;;;;;;3.27;2.90;;;;;;;;;;5112902;28;20688;-84
2024/03/09 01:48:34;;;;;;;3.27;2.93;;;;;;;;;;5112975;28;20289;-83
2024/03/09 01:51:04;;;;;;;3.50;3.13;;;;;;;;;;5112742;28;20215;-83
2024/03/09 01:53:31;;;;;;;3.80;3.40;;;;;;;;;;5113014;28;20208;-83
2024/03/09 01:56:00;;;;;;;3.87;3.13;;;;;;;;;;5109285;28;20274;-83
2024/03/09 01:58:28;;;;;;;3.57;2.90;;;;;;;;;;5112455;28;20221;-83
2024/03/09 02:00:59;;;;;;;3.10;2.80;;;;;;;;;;5113884;27;20638;-82
2024/03/09 02:03:26;;;;;;;3.27;2.90;;;;;;;;;;5112884;28;20672;-83
2024/03/09 02:05:55;;;;;;;4.17;2.83;;;;;;;;;;5112888;28;20254;-84
2024/03/09 02:08:23;;;;;;;6.77;3.17;;;;;;;;;;5112943;28;20289;-84
2024/03/09 02:10:51;;;;;;;3.73;2.87;;;;;;;;;;5099838;28;20206;-83
2024/03/09 02:13:18;;;;;;;3.53;3.10;;;;;;;;;;5115842;27;20274;-84
2024/03/09 02:15:47;;;;;;;3.53;3.23;;;;;;;;;;5112630;28;20198;-83
2024/03/09 02:18:16;;;;;;;3.63;2.87;;;;;;;;;;5112645;28;20620;-84
2024/03/09 02:20:50;;;;;;;3.30;2.80;;;;;;;;;;5113208;28;20263;-82
2024/03/09 02:23:19;;;;;;;3.63;3.10;;;;;;;;;;5112104;28;20212;-83
2024/03/09 02:25:48;;;;;;;4.63;3.13;;;;;;;;;;5112251;28;20270;-83
2024/03/09 02:28:15;;;;;;;5.00;3.10;;;;;;;;;;5111370;28;20193;-83
2024/03/09 02:30:48;;;;;;;4.73;2.90;;;;;;;;;;5111400;28;20232;-83
2024/03/09 02:33:15;;;;;;;4.13;3.20;;;;;;;;;;5112016;28;20519;-83
2024/03/09 02:35:42;;;;;;;3.53;3.00;;;;;;;;;;5112309;28;20694;-82
2024/03/09 02:38:10;;;;;;;3.47;3.00;;;;;;;;;;5112488;28;20229;-83
2024/03/09 02:40:37;;;;;;;3.40;3.10;;;;;;;;;;5111785;28;20628;-83
2024/03/09 02:43:07;;;;;;;4.50;2.70;;;;;;;;;;5111538;28;20663;-83
2024/03/09 02:45:35;;;;;;;3.73;2.90;;;;;;;;;;5111929;28;20247;-81
2024/03/09 02:48:02;;;;;;;4.43;3.37;;;;;;;;;;5111378;28;20250;-83
2024/03/09 02:50:29;;;;;;;3.20;2.73;;;;;;;;;;5111785;28;20738;-83
2024/03/09 02:52:57;;;;;;;3.27;2.90;;;;;;;;;;5111515;28;20213;-84
2024/03/09 02:55:26;;;;;;;3.27;2.97;;;;;;;;;;5111867;28;20190;-84
2024/03/09 02:57:53;;;;;;;3.20;2.90;;;;;;;;;;5111602;28;20205;-84
2024/03/09 03:00:23;;;;;;;4.93;3.43;;;;;;;;;;5111585;28;20243;-83
2024/03/09 03:05:36;;;;;;;3.20;2.90;;;;;;;;;;5111992;28;20208;-83
2024/03/09 03:08:04;;;;;;;4.07;3.30;;;;;;;;;;5111582;28;20196;-83
2024/03/09 03:10:32;;;;;;;3.23;2.93;;;;;;;;;;5111135;28;20230;-83
2024/03/09 03:12:59;;;;;;;4.37;3.30;;;;;;;;;;5113252;27;20327;-84
2024/03/09 03:15:28;;;;;;;3.83;3.10;;;;;;;;;;5111205;28;20193;-83
2024/03/09 03:17:55;;;;;;;3.70;3.13;;;;;;;;;;5111457;28;20205;-83
2024/03/09 03:20:23;;;;;;;4.60;3.20;;;;;;;;;;5111621;28;20259;-83
2024/03/09 03:22:50;;;;;;;4.60;3.10;;;;;;;;;;5111784;28;20255;-83
2024/03/09 03:25:19;;;;;;;5.00;2.80;;;;;;;;;;5110939;28;20580;-82
2024/03/09 03:27:47;;;;;;;3.27;2.97;;;;;;;;;;5111666;28;20675;-83
2024/03/09 03:30:16;;;;;;;3.90;3.23;;;;;;;;;;5110902;28;20663;-83
2024/03/09 03:32:44;;;;;;;3.17;2.63;;;;;;;;;;5111114;28;20631;-83
2024/03/09 03:35:12;;;;;;;3.10;2.80;;;;;;;;;;5110905;28;20735;-84
2024/03/09 03:37:41;;;;;;;4.13;3.00;;;;;;;;;;5111379;28;20224;-83
2024/03/09 03:40:09;;;;;;;2.90;2.60;;;;;;;;;;5110783;28;20194;-83
2024/03/09 03:42:37;;;;;;;4.13;2.63;;;;;;;;;;5111159;28;20190;-83
2024/03/09 03:45:07;;;;;;;3.27;2.80;;;;;;;;;;5111308;28;20221;-82
2024/03/09 03:47:34;;;;;;;4.00;2.77;;;;;;;;;;5111547;28;20255;-83
2024/03/09 03:50:03;;;;;;;2.80;2.33;;;;;;;;;;5111322;28;20739;-82
2024/03/09 03:52:30;;;;;;;4.40;2.70;;;;;;;;;;5111402;28;20225;-82
2024/03/09 03:54:57;;;;;;;3.70;2.73;;;;;;;;;;5110614;28;20190;-83
2024/03/09 03:57:24;;;;;;;3.10;2.80;;;;;;;;;;5111223;28;20282;-83
2024/03/09 03:59:52;;;;;;;2.90;2.43;;;;;;;;;;5110886;28;20259;-83
2024/03/09 04:02:19;;;;;;;3.10;2.63;;;;;;;;;;5111137;28;20190;-83
2024/03/09 04:04:46;;;;;;;2.73;2.30;;;;;;;;;;5110695;28;20660;-83
2024/03/09 04:07:15;;;;;;;3.13;2.20;;;;;;;;;;5111489;28;20217;-83
2024/03/09 04:09:43;;;;;;;2.60;2.40;;;;;;;;;;5110480;28;20248;-83
2024/03/09 04:12:11;;;;;;;2.50;2.30;;;;;;;;;;5114286;28;20277;-84
2024/03/09 04:14:38;;;;;;;3.40;2.70;;;;;;;;;;5131932;28;20659;-83
2024/03/09 04:17:05;;;;;;;3.10;2.43;;;;;;;;;;5132296;28;20229;-84
2024/03/09 04:19:32;;;;;;;3.37;2.10;;;;;;;;;;5131902;27;20201;-84
2024/03/09 04:22:00;;;;;;;3.03;1.90;;;;;;;;;;5110665;28;20437;-83
2024/03/09 04:24:28;;;;;;;3.33;2.30;;;;;;;;;;5110657;28;20190;-83
2024/03/09 04:26:56;;;;;;;3.03;2.20;;;;;;;;;;5111151;28;20229;-81
2024/03/09 04:29:23;;;;;;;2.53;2.20;;;;;;;;;;5111273;28;20214;-84
2024/03/09 04:31:51;;;;;;;2.63;1.93;;;;;;;;;;5110575;28;20239;-84
2024/03/09 04:34:23;;;;;;;3.30;2.10;;;;;;;;;;5111260;28;20246;-83
2024/03/09 04:36:50;;;;;;;3.57;2.20;;;;;;;;;;5111015;28;20745;-83
2024/03/09 04:39:19;;;;;;;3.73;2.37;;;;;;;;;;5113633;28;20239;-84
2024/03/09 04:41:47;;;;;;;2.30;1.93;;;;;;;;;;5114410;28;20190;-83
2024/03/09 04:44:16;;;;;;;3.40;1.90;;;;;;;;;;5115068;28;20592;-84
2024/03/09 04:46:43;;;;;;;2.60;1.93;;;;;;;;;;5114629;28;20286;-83
2024/03/09 04:49:11;;;;;;;2.37;2.07;;;;;;;;;;5114480;28;20231;-83
2024/03/09 04:51:39;;;;;;;2.27;1.80;;;;;;;;;;5114294;27;20293;-84
2024/03/09 04:54:06;;;;;;;3.03;1.87;;;;;;;;;;5113959;28;20232;-84
2024/03/09 04:56:35;;;;;;;2.93;1.90;;;;;;;;;;5114638;28;20196;-83
2024/03/09 04:59:04;;;;;;;3.47;1.93;;;;;;;;;;5128665;27;20657;-83
2024/03/09 05:01:32;;;;;;;2.80;2.03;;;;;;;;;;5118628;27;20189;-84
2024/03/09 05:03:59;;;;;;;2.20;1.90;;;;;;;;;;5113801;28;20251;-83
2024/03/09 05:06:29;;;;;;;2.67;2.10;;;;;;;;;;5113754;28;20661;-83
2024/03/09 05:08:57;;;;;;;3.33;2.00;;;;;;;;;;5114425;28;20198;-83
2024/03/09 05:11:24;;;;;;;2.83;1.87;;;;;;;;;;5113115;28;20202;-83
2024/03/09 05:13:53;;;;;;;2.10;1.90;;;;;;;;;;5131339;27;20230;-83
2024/03/09 05:16:23;;;;;;;3.00;1.80;;;;;;;;;;5132876;27;20228;-84
2024/03/09 05:18:51;;;;;;;2.50;1.87;;;;;;;;;;5112738;28;20646;-83
2024/03/09 05:21:19;;;;;;;2.23;1.90;;;;;;;;;;5113285;28;20232;-83
2024/03/09 05:23:46;;;;;;;2.87;1.80;;;;;;;;;;5113431;28;20225;-82
2024/03/09 05:26:13;;;;;;;2.13;1.90;;;;;;;;;;5113488;28;20622;-84
2024/03/09 05:28:40;;;;;;;3.40;1.70;;;;;;;;;;5113067;28;20197;-83
2024/03/09 05:31:23;;;;;;;2.97;1.97;;;;;;;;;;5113466;28;20252;-83
2024/03/09 05:33:51;;;;;;;3.80;1.80;;;;;;;;;;5113395;28;20233;-83
2024/03/09 05:36:19;;;;;;;2.83;1.73;;;;;;;;;;5113470;28;20229;-83
2024/03/09 05:38:48;;;;;;;2.60;1.90;;;;;;;;;;5113128;28;20198;-84
2024/03/09 05:41:16;;;;;;;2.33;1.80;;;;;;;;;;5113045;28;20229;-83
2024/03/09 05:43:46;;;;;;;2.40;1.87;;;;;;;;;;5113209;28;20206;-83
2024/03/09 05:46:15;;;;;;;2.30;1.90;;;;;;;;;;5112929;28;20632;-83
2024/03/09 05:48:45;;;;;;;2.00;1.80;;;;;;;;;;5112336;28;20193;-83
2024/03/09 05:51:15;;;;;;;2.23;1.90;;;;;;;;;;5112461;28;20205;-83
2024/03/09 05:53:42;;;;;;;1.90;1.70;;;;;;;;;;5113275;28;20232;-84
2024/03/09 05:56:11;;;;;;;3.93;2.13;;;;;;;;;;5112553;28;20327;-83
2024/03/09 05:58:38;;;;;;;5.90;2.17;;;;;;;;;;5112968;28;20687;-83
2024/03/09 06:01:06;;;;;;;2.13;1.73;;;;;;;;;;5112042;28;20274;-83
2024/03/09 06:03:33;;;;;;;3.03;2.07;;;;;;;;;;5113013;28;20830;-82
2024/03/09 06:06:00;;;;;;;3.43;2.00;;;;;;;;;;5112897;28;20246;-83
2024/03/09 06:08:29;;;;;;;2.33;1.80;;;;;;;;;;5112382;28;20221;-80
2024/03/09 06:10:55;;;;;;;2.30;1.83;;;;;;;;;;5111742;28;20749;-82
2024/03/09 06:13:22;;;;;;;2.30;1.70;;;;;;;;;;5112234;28;20282;-83
2024/03/09 06:15:50;;;;;;;2.83;2.13;;;;;;;;;;5112570;28;20289;-83
2024/03/09 06:18:16;;;;;;;2.13;1.90;;;;;;;;;;5113046;28;20233;-83
2024/03/09 06:20:44;;;;;;;2.30;1.90;;;;;;;;;;5111601;28;20209;-83
2024/03/09 06:23:12;;;;;;;3.13;2.03;;;;;;;;;;5112392;27;20239;-83
2024/03/09 06:25:41;;;;;;;3.40;2.00;;;;;;;;;;5112217;28;20203;-83
2024/03/09 06:28:12;;;;;;;2.77;2.03;;;;;;;;;;5112375;28;20193;-83
2024/03/09 06:30:39;;;;;;;2.67;1.70;;;;;;;;;;5112306;28;20286;-83
2024/03/09 06:33:06;;;;;;;2.50;1.70;;;;;;;;;;5112238;28;20250;-82
2024/03/09 06:35:34;;;;;;;3.43;2.17;;;;;;;;;;5112076;28;20241;-82
2024/03/09 06:38:01;;;;;;;2.47;1.90;;;;;;;;;;5111948;28;20672;-83
2024/03/09 06:40:29;;;;;;;2.77;1.90;;;;;;;;;;5111575;28;20232;-83
2024/03/09 06:43:00;;;;;;;2.63;1.70;;;;;;;;;;5112304;28;20292;-83
2024/03/09 06:45:28;;;;;;;2.03;1.83;;;;;;;;;;5112190;28;20255;-83
2024/03/09 06:47:57;;;;;;;2.77;1.80;;;;;;;;;;5111937;28;20197;-83
2024/03/09 06:50:25;;;;;;;2.70;2.10;;;;;;;;;;5111255;28;20280;-83
2024/03/09 06:52:52;;;;;;;2.67;1.90;;;;;;;;;;5112204;28;20233;-82
2024/03/09 06:55:24;;;;;;;2.57;2.00;;;;;;;;;;5111739;28;20236;-83
2024/03/09 06:57:52;;;;;;;2.47;1.80;;;;;;;;;;5111710;28;20193;-83
2024/03/09 07:00:21;;;;;;;2.37;1.87;;;;;;;;;;5110648;28;20217;-84
2024/03/09 07:02:52;;;;;;;2.37;1.83;;;;;;;;;;5110994;28;20194;-83
2024/03/09 07:05:21;;;;;;;2.33;1.90;;;;;;;;;;5112005;28;20222;-83
2024/03/09 07:07:48;;;;;;;2.37;1.80;;;;;;;;;;5112094;28;20216;-83
2024/03/09 07:10:16;;;;;;;2.10;1.70;;;;;;;;;;5111114;28;20229;-82
2024/03/09 07:12:43;;;;;;;1.93;1.73;;;;;;;;;;5111834;28;20201;-82
2024/03/09 07:15:15;;;;;;;2.37;2.10;;;;;;;;;;5111218;28;20199;-83
2024/03/09 07:17:44;;;;;;;2.00;1.80;;;;;;;;;;5110543;28;20230;-83
2024/03/09 07:20:16;;;;;;;2.27;1.90;;;;;;;;;;5111518;28;20220;-83
2024/03/09 07:22:44;;;;;;;2.50;2.03;;;;;;;;;;5111379;28;20202;-83
2024/03/09 07:25:13;;;;;;;2.40;2.03;;;;;;;;;;5111239;28;20233;-83
2024/03/09 07:27:41;;;;;;;2.33;2.00;;;;;;;;;;5111582;28;20218;-83
2024/03/09 07:30:09;;;;;;;2.00;1.77;;;;;;;;;;5107246;28;20293;-83
2024/03/09 07:32:37;;;;;;;2.80;2.03;;;;;;;;;;5099165;28;20190;-82
2024/03/09 07:35:14;;;;;;;2.97;2.00;;;;;;;;;;5111356;28;20241;-83
2024/03/09 07:37:42;;;;;;;3.27;1.97;;;;;;;;;;5111555;28;20198;-83
2024/03/09 07:40:10;;;;;;;2.20;1.80;;;;;;;;;;5110617;28;20197;-82
2024/03/09 07:42:38;;;;;;;3.07;1.90;;;;;;;;;;5111476;28;20221;-83
2024/03/09 07:45:07;;;;;;;2.47;1.67;;;;;;;;;;5110995;28;20186;-83
2024/03/09 07:47:34;;;;;;;2.40;1.80;;;;;;;;;;5111266;28;20198;-82
2024/03/09 07:50:02;;;;;;;2.07;1.60;;;;;;;;;;5111320;28;20198;-83
2024/03/09 07:52:32;;;;;;;2.93;1.70;;;;;;;;;;5110738;28;20205;-83
2024/03/09 07:54:59;;;;;;;1.80;1.60;;;;;;;;;;5112067;28;20312;-87
2024/03/09 07:57:30;;;;;;;2.27;1.63;;;;;;;;;;5112784;28;20202;-86
2024/03/09 07:59:57;;;;;;;2.10;1.57;;;;;;;;;;5112338;28;20584;-86
2024/03/09 08:02:24;;;;;;;2.37;1.50;;;;;;;;;;5112095;28;20234;-84
2024/03/09 08:04:54;;;;;;;2.13;1.70;;;;;;;;;;5112175;28;20190;-84
2024/03/09 08:07:22;;;;;;;2.00;1.53;;;;;;;;;;5112548;28;20198;-85
2024/03/09 08:09:51;;;;;;;2.17;1.47;;;;;;;;;;5111559;28;20682;-86
2024/03/09 08:12:18;;;;;;;2.43;1.50;;;;;;;;;;5113394;28;20568;-85
2024/03/09 08:14:46;;;;;;;2.17;1.60;;;;;;;;;;5115566;28;20214;-84
2024/03/09 08:17:14;;;;;;;1.90;1.50;;;;;;;;;;5115193;28;20241;-85
2024/03/09 08:19:41;;;;;;;2.23;1.40;;;;;;;;;;5116082;28;20206;-87
2024/03/09 08:22:09;;;;;;;1.50;1.17;;;;;;;;;;5111493;28;20269;-87
2024/03/09 08:24:36;;;;;;;1.83;1.50;;;;;;;;;;5116448;28;20198;-85
2024/03/09 08:27:08;;;;;;;2.50;1.37;;;;;;;;;;5116341;28;20560;-85
2024/03/09 08:29:35;;;;;;;1.80;1.30;;;;;;;;;;5115982;28;20211;-87
2024/03/09 08:32:06;;;;;;;2.23;1.50;;;;;;;;;;5115900;28;20182;-87
2024/03/09 08:34:36;;;;;;;2.20;1.20;;;;;;;;;;5116166;28;20217;-91
2024/03/09 08:37:08;;;;;;;1.60;1.20;;;;;;;;;;5116326;28;20281;-86
2024/03/09 08:39:39;;;;;;;1.73;1.23;;;;;;;;;;5116233;28;20705;-88
2024/03/09 08:42:14;;;;;;;1.50;1.10;;;;;;;;;;5116161;28;20250;-85
2024/03/09 08:44:42;;;;;;;1.43;1.30;;;;;;;;;;5115021;28;20374;-86
2024/03/09 08:47:10;;;;;;;3.53;1.13;;;;;;;;;;5115654;28;20201;-85
2024/03/09 08:49:56;;;;;;;2.73;1.23;;;;;;;;;;5115697;28;20713;-86
2024/03/09 08:55:07;;;;;;;1.67;1.10;;;;;;;;;;5111283;28;20808;-85
2024/03/09 08:57:36;;;;;;;1.77;1.10;;;;;;;;;;5115356;28;20263;-84
2024/03/09 09:00:05;;;;;;;1.93;1.20;;;;;;;;;;5114425;28;20186;-84
2024/03/09 09:02:33;;;;;;;2.53;1.27;;;;;;;;;;5115090;28;20258;-85
2024/03/09 09:05:00;;;;;;;1.43;1.10;;;;;;;;;;5115128;28;20225;-86
2024/03/09 09:07:28;;;;;;;1.57;0.90;;;;;;;;;;5115094;28;20678;-87
2024/03/09 09:09:55;;;;;;;1.40;1.10;;;;;;;;;;5115953;28;20205;-87
2024/03/09 09:12:33;;;;;;;1.60;1.07;;;;;;;;;;5110660;28;20194;-88
2024/03/09 09:15:01;;;;;;;1.10;1.00;;;;;;;;;;5094809;28;20278;-90
2024/03/09 09:17:29;;;;;;;1.60;1.20;;;;;;;;;;5107740;28;20294;-88
2024/03/09 09:19:56;;;;;;;1.40;1.00;;;;;;;;;;5114810;28;20209;-84
2024/03/09 09:22:23;;;;;;;1.67;1.00;;;;;;;;;;5112643;28;20673;-83
2024/03/09 09:24:50;;;;;;;1.83;0.90;;;;;;;;;;5113425;28;20236;-84
2024/03/09 09:27:18;;;;;;;2.27;0.90;;;;;;;;;;5113527;28;20189;-82
2024/03/09 09:29:46;;;;;;;2.47;1.00;;;;;;;;;;5113624;28;20196;-88
2024/03/09 09:32:14;;;;;;;1.20;1.00;;;;;;;;;;5114190;28;20190;-87
2024/03/09 09:34:41;;;;;;;1.97;1.20;;;;;;;;;;5113941;28;20699;-82
2024/03/09 09:37:12;;;;;;;1.98;1.30;;;;;;;;;;5113154;28;20866;-79
2024/03/09 09:39:42;;;;;;;3.40;1.40;;;;;;;;;;5114004;28;20201;-82
2024/03/09 09:42:12;;;;;;;4.07;1.90;;;;;;;;;;5111867;28;20697;-85
2024/03/09 09:44:40;;;;;;;1.50;1.10;;;;;;;;;;5104878;28;20237;-82
2024/03/09 09:47:10;;;;;;;2.60;1.57;;;;;;;;;;5107203;28;20565;-81
2024/03/09 09:49:39;;;;;;;2.00;1.43;;;;;;;;;;5109921;28;20240;-81
2024/03/09 09:52:09;;;;;;;2.77;1.63;;;;;;;;;;5111378;28;20205;-80
2024/03/09 09:54:37;;;;;;;2.33;1.07;;;;;;;;;;5113000;27;20220;-81
2024/03/09 09:57:05;;;;;;;1.83;1.10;;;;;;;;;;5111619;28;20221;-82
2024/03/09 09:59:32;;;;;;;1.60;0.90;;;;;;;;;;5108046;28;20201;-81
2024/03/09 10:01:59;;;;;;;1.93;1.10;;;;;;;;;;5111960;28;20281;-83
2024/03/09 10:04:27;;;;;;;1.90;0.80;;;;;;;;;;5111761;28;20668;-81
2024/03/09 10:07:07;;;;;;;1.20;0.83;;;;;;;;;;5107852;28;20251;-80
2024/03/09 10:09:34;;;;;;;2.17;1.00;;;;;;;;;;5108757;28;20203;-81
2024/03/09 10:12:02;;;;;;;2.47;1.10;;;;;;;;;;5110063;28;20231;-80
2024/03/09 10:14:30;;;;;;;3.07;1.20;;;;;;;;;;5111180;28;20577;-82
2024/03/09 10:16:57;;;;;;;2.00;0.80;;;;;;;;;;5110837;28;20268;-81
2024/03/09 10:19:24;;;;;;;2.00;1.00;;;;;;;;;;5110344;28;20744;-81
2024/03/09 10:21:52;;;;;;;2.60;1.20;;;;;;;;;;5109857;28;20258;-81
2024/03/09 10:24:23;;;;;;;4.97;1.20;;;;;;;;;;5111503;28;20276;-82
2024/03/09 10:26:51;;;;;;;2.00;1.50;;;;;;;;;;5110300;28;20201;-79
2024/03/09 10:29:21;;;;;;;3.10;1.80;;;;;;;;;;5102883;27;20277;-80
2024/03/09 10:31:50;;;;;;;3.97;1.70;;;;;;;;;;5108255;28;20236;-79
2024/03/09 10:34:18;;;;;;;2.73;2.00;;;;;;;;;;5096789;28;20639;-83
2024/03/09 10:36:45;;;;;;;5.47;3.20;;;;;;;;;;5108135;28;20202;-83
2024/03/09 10:39:19;;;;;;;2.60;1.73;;;;;;;;;;5111792;28;20196;-84
2024/03/09 10:41:53;;;;;;;3.63;1.63;;;;;;;;;;5110890;28;20736;-83
2024/03/09 10:44:23;;;;;;;2.77;1.57;;;;;;;;;;5107009;28;20236;-84
2024/03/09 10:46:57;;;;;;;4.17;1.63;;;;;;;;;;5100498;28;20673;-84
2024/03/09 10:49:25;;;;;;;2.53;1.93;;;;;;;;;;5105521;28;20197;-82
2024/03/09 10:51:54;;;;;;;5.10;2.50;;;;;;;;;;5111045;28;20592;-83
2024/03/09 10:54:25;;;;;;;3.57;2.80;;;;;;;;;;5110478;28;20226;-82
2024/03/09 10:56:54;;;;;;;2.50;1.57;;;;;;;;;;5110055;28;20633;-84
2024/03/09 10:59:23;;;;;;;3.97;1.60;;;;;;;;;;5111081;28;20701;-83
2024/03/09 11:01:52;;;;;;;3.23;1.90;;;;;;;;;;5096288;28;20260;-84
2024/03/09 11:04:20;;;;;;;4.57;1.50;;;;;;;;;;5111906;28;20285;-84
2024/03/09 11:06:48;;;;;;;2.13;1.33;;;;;;;;;;5111786;28;20300;-84
2024/03/09 11:09:16;;;;;;;3.47;1.03;;;;;;;;;;5112235;28;20727;-84
2024/03/09 11:11:45;;;;;;;3.43;1.43;;;;;;;;;;5111851;28;20201;-83
2024/03/09 11:14:22;;;;;;;1.60;1.00;;;;;;;;;;5119606;27;20612;-83
2024/03/09 11:16:53;;;;;;;3.03;1.77;;;;;;;;;;5112287;28;20253;-84
2024/03/09 11:19:20;;;;;;;2.43;1.10;;;;;;;;;;5108740;27;20979;-84
2024/03/09 11:21:51;;;;;;;2.43;1.57;;;;;;;;;;5110746;28;20676;-85
2024/03/09 11:24:19;;;;;;;1.70;1.20;;;;;;;;;;5111400;28;20240;-85
2024/03/09 11:26:52;;;;;;;2.33;1.30;;;;;;;;;;5106002;28;20205;-84
2024/03/09 11:29:21;;;;;;;1.37;1.20;;;;;;;;;;5112054;28;20682;-85
2024/03/09 11:31:50;;;;;;;2.43;1.40;;;;;;;;;;5111696;28;20190;-85
2024/03/09 11:34:21;;;;;;;2.70;1.77;;;;;;;;;;5106121;28;20194;-85
2024/03/09 11:36:51;;;;;;;2.07;1.50;;;;;;;;;;5107791;28;20209;-84
2024/03/09 11:39:21;;;;;;;2.03;1.50;;;;;;;;;;5106952;28;20206;-83
2024/03/09 11:41:49;;;;;;;1.90;1.63;;;;;;;;;;5107964;28;20232;-85
2024/03/09 11:44:22;;;;;;;2.53;1.30;;;;;;;;;;5103454;28;20209;-83
2024/03/09 11:46:49;;;;;;;2.70;1.60;;;;;;;;;;5106566;28;20200;-82
2024/03/09 11:49:17;;;;;;;2.00;0.93;;;;;;;;;;5107166;28;20277;-83
2024/03/09 11:51:44;;;;;;;3.10;0.90;;;;;;;;;;5108380;28;20244;-83
2024/03/09 11:54:12;;;;;;;2.10;1.00;;;;;;;;;;5113037;27;20233;-83
2024/03/09 11:56:40;;;;;;;1.10;0.80;;;;;;;;;;5115568;28;20254;-81
2024/03/09 11:59:10;;;;;;;1.37;1.00;;;;;;;;;;5115176;28;20555;-82
2024/03/09 12:01:39;;;;;;;2.40;0.77;;;;;;;;;;5115391;28;20196;-83
2024/03/09 12:04:07;;;;;;;2.43;0.90;;;;;;;;;;5114813;28;20694;-82
2024/03/09 12:06:35;;;;;;;1.40;0.90;;;;;;;;;;5113118;28;20205;-82
2024/03/09 12:09:02;;;;;;;2.10;1.27;;;;;;;;;;5113820;28;20232;-81
2024/03/09 12:11:30;;;;;;;2.33;0.93;;;;;;;;;;5114436;28;20194;-82
2024/03/09 12:13:58;;;;;;;1.80;0.90;;;;;;;;;;5109185;27;20286;-82
2024/03/09 12:16:26;;;;;;;3.30;1.40;;;;;;;;;;5101746;28;20906;-82
2024/03/09 12:18:56;;;;;;;1.93;0.80;;;;;;;;;;5094452;28;20679;-82
2024/03/09 12:21:26;;;;;;;1.30;0.57;;;;;;;;;;5108085;28;20205;-82
2024/03/09 12:23:54;;;;;;;1.27;0.73;;;;;;;;;;5111251;28;20220;-81
2024/03/09 12:26:22;;;;;;;1.67;0.70;;;;;;;;;;5111310;28;20208;-82
2024/03/09 12:28:49;;;;;;;1.30;0.70;;;;;;;;;;5114117;28;20769;-82
2024/03/09 12:31:16;;;;;;;2.53;0.77;;;;;;;;;;5114043;28;20205;-81
2024/03/09 12:33:46;;;;;;;1.53;0.83;;;;;;;;;;5113951;28;20759;-81
2024/03/09 12:36:18;;;;;;;2.57;0.63;;;;;;;;;;5111441;28;20765;-83
2024/03/09 12:38:46;;;;;;;0.80;0.60;;;;;;;;;;5114657;28;20197;-79
2024/03/09 12:41:25;;;;;;;1.10;0.70;;;;;;;;;;5113066;28;20208;-82
2024/03/09 12:43:55;;;;;;;1.40;0.70;;;;;;;;;;5104340;27;20225;-81
2024/03/09 12:46:25;;;;;;;0.80;0.60;;;;;;;;;;5114589;28;20211;-81
2024/03/09 12:48:53;;;;;;;1.73;0.60;;;;;;;;;;5114308;28;20194;-81
2024/03/09 12:51:21;;;;;;;1.20;0.70;;;;;;;;;;5114019;28;20221;-81
2024/03/09 12:53:57;;;;;;;1.07;0.90;;;;;;;;;;5114499;28;20202;-82
2024/03/09 12:56:29;;;;;;;0.97;0.60;;;;;;;;;;5114020;28;20635;-83
2024/03/09 12:58:56;;;;;;;1.47;0.63;;;;;;;;;;5113491;28;20255;-83
2024/03/09 13:01:24;;;;;;;1.40;0.60;;;;;;;;;;5115488;27;20202;-82
2024/03/09 13:03:53;;;;;;;0.87;0.60;;;;;;;;;;5114066;28;20197;-81
2024/03/09 13:06:22;;;;;;;0.70;0.50;;;;;;;;;;5112130;28;20202;-82
2024/03/09 13:08:49;;;;;;;0.80;0.60;;;;;;;;;;5113988;28;20198;-81
2024/03/09 13:11:20;;;;;;;1.77;1.00;;;;;;;;;;5095382;28;20205;-82
2024/03/09 13:13:47;;;;;;;2.07;0.93;;;;;;;;;;5126362;27;20197;-81
2024/03/09 13:16:16;;;;;;;0.87;0.70;;;;;;;;;;5111765;27;20715;-80
2024/03/09 13:18:44;;;;;;;1.53;0.70;;;;;;;;;;5115714;27;20196;-81
2024/03/09 13:21:11;;;;;;;1.60;1.40;;;;;;;;;;5111517;28;20198;-81
2024/03/09 13:23:40;;;;;;;1.80;1.60;;;;;;;;;;5113569;28;20197;-82
2024/03/09 13:26:12;;;;;;;2.30;1.30;;;;;;;;;;5096798;28;20260;-81
2024/03/09 13:28:40;;;;;;;1.30;1.00;;;;;;;;;;5106201;28;20198;-81
2024/03/09 13:31:07;;;;;;;2.40;0.90;;;;;;;;;;5111258;28;20276;-80
2024/03/09 13:33:41;;;;;;;1.00;0.57;;;;;;;;;;5109637;28;20208;-82
2024/03/09 13:36:09;;;;;;;1.33;0.60;;;;;;;;;;5112636;27;20218;-81
2024/03/09 13:38:36;;;;;;;0.77;0.50;;;;;;;;;;5111946;28;20202;-81
2024/03/09 13:41:09;;;;;;;1.47;0.70;;;;;;;;;;5106629;28;20237;-82
2024/03/09 13:43:37;;;;;;;0.93;0.50;;;;;;;;;;5102043;28;20597;-81
2024/03/09 13:46:07;;;;;;;0.97;0.60;;;;;;;;;;5104874;28;20198;-80
2024/03/09 13:48:39;;;;;;;0.77;0.50;;;;;;;;;;5106428;28;20194;-80
2024/03/09 13:51:08;;;;;;;0.67;0.40;;;;;;;;;;5112339;28;20220;-82
2024/03/09 13:53:39;;;;;;;0.57;0.30;;;;;;;;;;5114304;27;20652;-81
2024/03/09 13:56:13;;;;;;;0.57;0.30;;;;;;;;;;5111326;28;20210;-81
2024/03/09 13:58:41;;;;;;;1.07;0.30;;;;;;;;;;5112498;28;20193;-81
2024/03/09 14:01:10;;;;;;;0.60;0.40;;;;;;;;;;5109755;28;20237;-82
2024/03/09 14:03:37;;;;;;;0.50;0.40;;;;;;;;;;5110047;28;20204;-81
2024/03/09 14:06:06;;;;;;;1.00;0.67;;;;;;;;;;5112754;28;20237;-81
2024/03/09 14:08:34;;;;;;;0.97;0.30;;;;;;;;;;5109889;28;20212;-82
2024/03/09 14:11:03;;;;;;;1.30;0.90;;;;;;;;;;5112491;28;20206;-81
2024/03/09 14:13:35;;;;;;;2.23;1.77;;;;;;;;;;5112113;27;20198;-81
2024/03/09 14:16:07;;;;;;;1.63;0.60;;;;;;;;;;5110808;28;20265;-82
2024/03/09 14:18:34;;;;;;;1.27;0.70;;;;;;;;;;5104802;28;20206;-82
2024/03/09 14:21:06;;;;;;;0.93;0.40;;;;;;;;;;5112404;28;20600;-81
2024/03/09 14:23:33;;;;;;;1.43;0.70;;;;;;;;;;5112517;28;20190;-81
2024/03/09 14:26:01;;;;;;;1.60;0.50;;;;;;;;;;5109361;28;20225;-82
2024/03/09 14:28:29;;;;;;;1.20;0.50;;;;;;;;;;5113625;27;20213;-82
2024/03/09 14:30:58;;;;;;;1.83;0.60;;;;;;;;;;5110190;28;20667;-81
2024/03/09 14:33:26;;;;;;;1.13;0.50;;;;;;;;;;5111519;27;20200;-81
2024/03/09 14:35:53;;;;;;;1.70;0.60;;;;;;;;;;5108938;28;20723;-82
2024/03/09 14:38:22;;;;;;;1.10;0.90;;;;;;;;;;5106115;28;20210;-82
2024/03/09 14:40:51;;;;;;;1.83;0.70;;;;;;;;;;5108212;27;20204;-82
2024/03/09 14:43:21;;;;;;;1.30;0.67;;;;;;;;;;5119865;27;20284;-81
2024/03/09 14:45:49;;;;;;;1.00;0.63;;;;;;;;;;5106294;28;20194;-81
2024/03/09 14:48:20;;;;;;;0.67;0.40;;;;;;;;;;5111044;28;20201;-80
2024/03/09 14:50:47;;;;;;;1.00;0.60;;;;;;;;;;5111306;28;20296;-81
2024/03/09 14:53:14;;;;;;;1.20;0.70;;;;;;;;;;5109947;28;20205;-80
2024/03/09 14:55:44;;;;;;;1.00;0.63;;;;;;;;;;5109460;28;20256;-81